createdAt,value
2023-04-14T00:00:41.145Z,7.41
2023-04-14T00:03:08.805Z,7.36
2023-04-14T00:05:36.427Z,7.31
2023-04-14T00:08:03.529Z,7.27
2023-04-14T00:10:30.350Z,7.22
2023-04-14T00:12:57.246Z,7.16
2023-04-14T00:15:24.811Z,7.12
2023-04-14T00:17:51.824Z,7.12
2023-04-14T00:20:19.068Z,7.10
2023-04-14T00:22:45.892Z,7.09
2023-04-14T00:25:12.836Z,7.07
2023-04-14T00:27:39.668Z,7.08
2023-04-14T00:30:07.340Z,7.09
2023-04-14T00:32:35.916Z,7.08
2023-04-14T00:35:03.785Z,7.08
2023-04-14T00:37:31.111Z,7.09
2023-04-14T00:39:57.947Z,7.08
2023-04-14T00:42:26.313Z,7.04
2023-04-14T00:44:54.346Z,7.00
2023-04-14T00:47:23.268Z,6.99
2023-04-14T00:49:51.368Z,6.97
2023-04-14T00:52:19.606Z,6.97
2023-04-14T00:54:46.611Z,6.97
2023-04-14T00:57:13.602Z,7.00
2023-04-14T00:59:40.996Z,7.00
2023-04-14T01:02:08.076Z,6.97
2023-04-14T01:04:52.120Z,6.91
2023-04-14T01:07:21.750Z,6.83
2023-04-14T01:09:49.165Z,6.80
2023-04-14T01:12:46.906Z,6.78
2023-04-14T01:15:39.186Z,6.74
2023-04-14T01:18:20.157Z,6.72
2023-04-14T01:20:56.860Z,6.69
2023-04-14T01:23:32.282Z,6.64
2023-04-14T01:26:20.967Z,6.62
2023-04-14T01:29:01.309Z,6.61
2023-04-14T01:31:48.437Z,6.63
2023-04-14T01:34:33.781Z,6.63
2023-04-14T01:37:16.539Z,6.59
2023-04-14T01:39:52.769Z,6.61
2023-04-14T01:42:27.150Z,6.60
2023-04-14T01:44:58.900Z,6.53
2023-04-14T01:47:27.268Z,6.51
2023-04-14T01:49:55.923Z,6.43
2023-04-14T01:52:23.318Z,6.35
2023-04-14T01:54:54.091Z,6.28
2023-04-14T01:57:23.127Z,6.21
2023-04-14T01:59:55.863Z,6.14
2023-04-14T02:02:24.663Z,6.11
2023-04-14T02:04:53.525Z,6.11
2023-04-14T02:07:22.205Z,6.08
2023-04-14T02:09:51.020Z,6.02
2023-04-14T02:12:19.898Z,5.95
2023-04-14T02:14:47.771Z,5.93
2023-04-14T02:17:20.646Z,5.93
2023-04-14T02:19:48.780Z,5.88
2023-04-14T02:22:16.826Z,5.85
2023-04-14T02:24:43.860Z,5.81
2023-04-14T02:27:22.990Z,5.78
2023-04-14T02:29:54.063Z,5.77
2023-04-14T02:32:25.999Z,5.74
2023-04-14T02:34:59.346Z,5.71
2023-04-14T02:37:31.764Z,5.69
2023-04-14T02:40:06.642Z,5.66
2023-04-14T02:42:37.494Z,5.66
2023-04-14T02:45:10.574Z,5.65
2023-04-14T02:47:41.253Z,5.64
2023-04-14T02:50:12.916Z,5.64
2023-04-14T02:52:41.088Z,5.64
2023-04-14T02:55:10.973Z,5.65
2023-04-14T02:57:38.822Z,5.63
2023-04-14T03:00:06.673Z,5.61
2023-04-14T03:02:35.512Z,5.60
2023-04-14T03:05:04.344Z,5.58
2023-04-14T03:07:32.314Z,5.59
2023-04-14T03:09:59.503Z,5.56
2023-04-14T03:12:28.057Z,5.54
2023-04-14T03:14:57.699Z,5.51
2023-04-14T03:17:27.666Z,5.47
2023-04-14T03:19:56.234Z,5.46
2023-04-14T03:22:28.325Z,5.46
2023-04-14T03:24:59.170Z,5.44
2023-04-14T03:27:28.235Z,5.46
2023-04-14T03:29:58.604Z,5.47
2023-04-14T03:32:32.452Z,5.45
2023-04-14T03:35:01.621Z,5.48
2023-04-14T03:37:31.838Z,5.49
2023-04-14T03:40:04.576Z,5.48
2023-04-14T03:42:40.612Z,5.46
2023-04-14T03:45:08.206Z,5.44
2023-04-14T03:47:35.569Z,5.42
2023-04-14T03:50:05.003Z,5.40
2023-04-14T03:52:35.972Z,5.39
2023-04-14T03:55:06.913Z,5.36
2023-04-14T03:57:37.281Z,5.33
2023-04-14T04:00:09.137Z,5.28
2023-04-14T04:02:37.818Z,5.26
2023-04-14T04:05:09.740Z,5.23
2023-04-14T04:07:40.719Z,5.19
2023-04-14T04:10:08.815Z,5.11
2023-04-14T04:12:38.363Z,5.09
2023-04-14T04:15:06.588Z,5.06
2023-04-14T04:17:35.055Z,5.06
2023-04-14T04:20:07.353Z,5.04
2023-04-14T04:22:38.119Z,5.03
2023-04-14T04:25:07.780Z,5.02
2023-04-14T04:27:35.017Z,5.00
2023-04-14T04:30:02.352Z,4.97
2023-04-14T04:32:29.946Z,4.95
2023-04-14T04:34:58.744Z,4.96
2023-04-14T04:37:29.065Z,4.91
2023-04-14T04:39:59.100Z,4.89
2023-04-14T04:42:25.984Z,4.86
2023-04-14T04:44:53.324Z,4.80
2023-04-14T04:47:20.355Z,4.76
2023-04-14T04:49:47.262Z,4.73
2023-04-14T04:52:14.354Z,4.71
2023-04-14T04:54:42.945Z,4.62
2023-04-14T04:57:10.825Z,4.57
2023-04-14T04:59:39.205Z,4.54
2023-04-14T05:02:06.838Z,4.54
2023-04-14T05:04:34.353Z,4.50
2023-04-14T05:07:02.481Z,4.48
2023-04-14T05:09:30.188Z,4.49
2023-04-14T05:11:58.993Z,4.51
2023-04-14T05:14:27.857Z,4.49
2023-04-14T05:16:55.044Z,4.43
2023-04-14T05:19:21.914Z,4.42
2023-04-14T05:21:48.849Z,4.39
2023-04-14T05:24:18.241Z,4.34
2023-04-14T05:27:01.623Z,4.31
2023-04-14T05:29:31.943Z,4.27
2023-04-14T05:31:58.694Z,4.23
2023-04-14T05:34:26.153Z,4.22
2023-04-14T05:36:53.149Z,4.22
2023-04-14T05:39:21.855Z,4.18
2023-04-14T05:41:48.827Z,4.20
2023-04-14T05:44:15.827Z,4.16
2023-04-14T05:46:42.781Z,4.16
2023-04-14T05:49:10.853Z,4.16
2023-04-14T05:51:38.226Z,4.14
2023-04-14T05:54:06.506Z,4.16
2023-04-14T05:56:36.519Z,4.16
2023-04-14T05:59:03.524Z,4.16
2023-04-14T06:01:32.919Z,4.17
2023-04-14T06:04:01.330Z,4.18
2023-04-14T06:06:29.159Z,4.19
2023-04-14T06:08:56.351Z,4.17
2023-04-14T06:11:23.564Z,4.19
2023-04-14T06:13:50.469Z,4.20
2023-04-14T06:16:17.391Z,4.25
2023-04-14T06:18:44.826Z,4.28
2023-04-14T06:21:12.289Z,4.29
2023-04-14T06:23:39.906Z,4.33
2023-04-14T06:26:07.252Z,4.35
2023-04-14T06:28:34.055Z,4.42
2023-04-14T06:31:01.097Z,4.47
2023-04-14T06:33:27.905Z,4.50
2023-04-14T06:35:55.179Z,4.56
2023-04-14T06:38:22.045Z,4.64
2023-04-14T06:40:49.795Z,4.69
2023-04-14T06:43:18.306Z,4.72
2023-04-14T06:45:45.326Z,4.77
2023-04-14T06:48:13.501Z,4.82
2023-04-14T06:50:41.992Z,4.87
2023-04-14T06:53:10.159Z,4.90
2023-04-14T06:55:41.757Z,4.96
2023-04-14T06:58:08.567Z,5.01
2023-04-14T07:00:39.015Z,5.05
2023-04-14T07:03:08.687Z,5.11
2023-04-14T07:05:35.861Z,5.15
2023-04-14T07:08:02.636Z,5.20
2023-04-14T07:10:31.789Z,5.23
2023-04-14T07:12:58.637Z,5.26
2023-04-14T07:15:25.695Z,5.30
2023-04-14T07:17:53.944Z,5.33
2023-04-14T07:20:23.159Z,5.34
2023-04-14T07:22:50.168Z,5.35
2023-04-14T07:25:17.192Z,5.37
2023-04-14T07:27:56.270Z,5.39
2023-04-14T07:30:29.613Z,5.41
2023-04-14T07:32:58.152Z,5.44
2023-04-14T07:35:26.362Z,5.47
2023-04-14T07:37:53.187Z,5.50
2023-04-14T07:40:20.578Z,5.53
2023-04-14T07:42:47.801Z,5.56
2023-04-14T07:45:14.719Z,5.60
2023-04-14T07:47:42.167Z,5.66
2023-04-14T07:50:11.089Z,5.76
2023-04-14T07:52:37.943Z,5.89
2023-04-14T07:55:05.109Z,6.06
2023-04-14T07:57:34.786Z,6.26
2023-04-14T08:00:01.713Z,6.38
2023-04-14T08:02:28.860Z,6.48
2023-04-14T08:04:56.248Z,6.51
2023-04-14T08:07:23.171Z,6.58
2023-04-14T08:09:50.056Z,6.66
2023-04-14T08:12:16.902Z,6.78
2023-04-14T08:14:43.958Z,6.95
2023-04-14T08:17:20.416Z,7.14
2023-04-14T08:19:47.991Z,7.32
2023-04-14T08:22:14.823Z,7.48
2023-04-14T08:24:42.024Z,7.64
2023-04-14T08:27:08.802Z,7.79
2023-04-14T08:29:35.714Z,7.94
2023-04-14T08:32:02.930Z,8.13
2023-04-14T08:34:30.175Z,8.36
2023-04-14T08:36:58.240Z,8.65
2023-04-14T08:39:25.065Z,9.02
2023-04-14T08:41:54.160Z,9.41
2023-04-14T08:44:22.455Z,10.13
2023-04-14T08:46:55.176Z,10.93
2023-04-14T08:49:30.225Z,11.23
2023-04-14T08:52:02.592Z,11.36
2023-04-14T08:54:32.427Z,11.26
2023-04-14T08:57:01.286Z,11.05
2023-04-14T08:59:29.183Z,11.01
2023-04-14T09:01:57.230Z,11.07
2023-04-14T09:04:25.893Z,11.32
2023-04-14T09:06:53.290Z,11.76
2023-04-14T09:09:21.639Z,12.11
2023-04-14T09:11:49.210Z,12.78
2023-04-14T09:14:18.424Z,13.88
2023-04-14T09:16:51.185Z,14.16
2023-04-14T09:19:18.723Z,13.89
2023-04-14T09:21:51.709Z,13.62
2023-04-14T09:24:23.886Z,13.67
2023-04-14T09:26:52.242Z,13.89
2023-04-14T09:29:19.121Z,14.60
2023-04-14T09:31:47.967Z,15.04
2023-04-14T09:34:18.557Z,14.96
2023-04-14T09:37:07.309Z,14.70
2023-04-14T09:39:35.407Z,14.78
2023-04-14T09:42:05.033Z,15.18
2023-04-14T09:44:31.920Z,15.27
2023-04-14T09:47:03.118Z,15.15
2023-04-14T09:49:31.231Z,15.42
2023-04-14T09:52:36.812Z,16.31
2023-04-14T09:55:12.455Z,17.10
2023-04-14T09:57:52.018Z,17.44
2023-04-14T10:00:24.766Z,17.70
2023-04-14T10:02:56.704Z,17.93
2023-04-14T10:05:34.602Z,18.15
2023-04-14T10:08:06.022Z,18.48
2023-04-14T10:10:32.949Z,18.65
2023-04-14T10:13:00.690Z,18.87
2023-04-14T10:15:28.334Z,19.15
2023-04-14T10:17:55.963Z,19.38
2023-04-14T10:20:24.066Z,19.34
2023-04-14T10:22:53.798Z,19.35
2023-04-14T10:25:21.223Z,19.67
2023-04-14T10:27:49.902Z,19.74
2023-04-14T10:30:17.219Z,19.75
2023-04-14T10:32:46.203Z,19.79
2023-04-14T10:35:15.839Z,19.66
2023-04-14T10:37:53.922Z,19.28
2023-04-14T10:40:23.485Z,18.96
2023-04-14T10:42:55.774Z,18.73
2023-04-14T10:45:23.388Z,18.63
2023-04-14T10:47:51.776Z,18.42
2023-04-14T10:50:25.575Z,18.19
2023-04-14T10:52:56.483Z,17.84
2023-04-14T10:55:28.274Z,17.37
2023-04-14T10:58:08.499Z,16.83
2023-04-14T11:00:38.696Z,16.14
2023-04-14T11:03:11.467Z,15.39
2023-04-14T11:05:51.509Z,15.00
2023-04-14T11:08:35.088Z,14.74
2023-04-14T11:11:05.253Z,14.55
2023-04-14T11:13:34.372Z,14.40
2023-04-14T11:16:05.666Z,14.22
2023-04-14T11:18:37.693Z,13.76
2023-04-14T11:21:11.191Z,13.31
2023-04-14T11:23:38.849Z,13.01
2023-04-14T11:26:07.208Z,12.96
2023-04-14T11:28:39.709Z,12.92
2023-04-14T11:31:08.997Z,12.96
2023-04-14T11:33:38.304Z,12.97
2023-04-14T11:36:07.382Z,12.68
2023-04-14T11:38:41.170Z,12.44
2023-04-14T11:41:09.705Z,12.25
2023-04-14T11:43:38.276Z,12.24
2023-04-14T11:46:08.924Z,12.30
2023-04-14T11:48:35.864Z,12.41
2023-04-14T11:51:04.162Z,12.44
2023-04-14T11:53:31.284Z,12.47
2023-04-14T11:55:58.305Z,12.49
2023-04-14T11:58:27.331Z,12.32
2023-04-14T12:00:56.224Z,12.13
2023-04-14T12:03:31.639Z,12.18
2023-04-14T12:06:00.968Z,12.32
2023-04-14T12:08:30.788Z,12.50
2023-04-14T12:10:57.933Z,12.67
2023-04-14T12:13:25.243Z,12.59
2023-04-14T12:15:53.318Z,12.55
2023-04-14T12:20:56.546Z,12.48
2023-04-14T12:23:23.865Z,12.61
2023-04-14T12:25:51.662Z,12.79
2023-04-14T12:28:31.933Z,13.03
2023-04-14T12:31:04.335Z,13.22
2023-04-14T12:33:33.056Z,13.16
2023-04-14T12:36:06.238Z,13.16
2023-04-14T12:38:34.296Z,13.10
2023-04-14T12:41:01.749Z,13.02
2023-04-14T12:43:36.895Z,13.20
2023-04-14T12:46:06.086Z,13.43
2023-04-14T12:48:48.374Z,13.66
2023-04-14T12:51:18.739Z,13.80
2023-04-14T12:53:50.509Z,13.74
2023-04-14T12:56:27.542Z,13.59
2023-04-14T12:58:56.265Z,13.35
2023-04-14T13:01:24.851Z,13.20
2023-04-14T13:03:58.138Z,13.06
2023-04-14T13:06:25.752Z,13.00
2023-04-14T13:08:55.010Z,13.13
2023-04-14T13:11:26.235Z,13.20
2023-04-14T13:13:54.010Z,13.12
2023-04-14T13:16:21.533Z,13.07
2023-04-14T13:18:49.225Z,13.21
2023-04-14T13:21:17.075Z,13.64
2023-04-14T13:23:45.171Z,14.04
2023-04-14T13:26:13.061Z,14.32
2023-04-14T13:28:40.020Z,14.59
2023-04-14T13:31:07.159Z,14.77
2023-04-14T13:33:34.099Z,15.02
2023-04-14T13:36:04.105Z,15.26
2023-04-14T13:38:31.274Z,15.38
2023-04-14T13:40:58.196Z,15.55
2023-04-14T13:43:25.075Z,15.68
2023-04-14T13:45:54.320Z,15.80
2023-04-14T13:48:21.277Z,15.87
2023-04-14T13:50:51.024Z,15.73
2023-04-14T13:53:18.257Z,15.52
2023-04-14T13:55:45.071Z,15.33
2023-04-14T13:58:11.856Z,15.55
2023-04-14T14:00:39.852Z,15.93
2023-04-14T14:03:06.803Z,16.01
2023-04-14T14:05:33.710Z,16.00
2023-04-14T14:08:01.053Z,16.20
2023-04-14T14:10:27.954Z,16.41
2023-04-14T14:12:54.776Z,16.21
2023-04-14T14:15:23.634Z,16.02
2023-04-14T14:17:53.180Z,15.96
2023-04-14T14:20:20.177Z,15.53
2023-04-14T14:22:47.470Z,15.21
2023-04-14T14:25:20.391Z,14.94
2023-04-14T14:27:48.552Z,14.82
2023-04-14T14:30:16.737Z,14.82
2023-04-14T14:32:43.971Z,14.82
2023-04-14T14:35:11.494Z,14.61
2023-04-14T14:37:39.449Z,14.34
2023-04-14T14:40:08.046Z,14.08
2023-04-14T14:42:34.959Z,13.91
2023-04-14T14:45:02.040Z,13.93
2023-04-14T14:47:29.240Z,14.29
2023-04-14T14:50:02.330Z,14.74
2023-04-14T14:52:36.863Z,15.09
2023-04-14T14:55:06.300Z,15.30
2023-04-14T14:57:34.166Z,15.46
2023-04-14T15:00:01.040Z,15.66
2023-04-14T15:02:28.166Z,15.81
2023-04-14T15:04:55.431Z,16.06
2023-04-14T15:07:22.510Z,16.08
2023-04-14T15:09:50.564Z,15.94
2023-04-14T15:12:19.837Z,15.77
2023-04-14T15:14:47.296Z,15.59
2023-04-14T15:17:16.406Z,15.54
2023-04-14T15:19:45.487Z,15.40
2023-04-14T15:22:12.752Z,15.13
2023-04-14T15:24:39.724Z,14.97
2023-04-14T15:27:06.967Z,15.30
2023-04-14T15:29:33.941Z,15.59
2023-04-14T15:32:01.660Z,15.86
2023-04-14T15:34:28.788Z,16.22
2023-04-14T15:36:56.182Z,16.54
2023-04-14T15:39:23.131Z,16.83
2023-04-14T15:41:50.818Z,16.59
2023-04-14T15:44:18.818Z,16.57
2023-04-14T15:46:46.573Z,16.90
2023-04-14T15:49:13.465Z,17.14
2023-04-14T15:51:40.904Z,17.28
2023-04-14T15:54:08.949Z,17.08
2023-04-14T15:56:37.198Z,16.83
2023-04-14T15:59:04.057Z,16.64
2023-04-14T16:01:31.157Z,16.52
2023-04-14T16:03:58.290Z,16.33
2023-04-14T16:06:25.659Z,16.06
2023-04-14T16:08:53.502Z,15.83
2023-04-14T16:11:20.443Z,15.57
2023-04-14T16:13:47.377Z,15.38
2023-04-14T16:16:16.141Z,15.18
2023-04-14T16:18:43.760Z,15.03
2023-04-14T16:21:10.637Z,15.01
2023-04-14T16:23:38.900Z,14.88
2023-04-14T16:26:05.852Z,14.80
2023-04-14T16:28:35.114Z,14.78
2023-04-14T16:31:03.099Z,15.00
2023-04-14T16:33:32.747Z,15.38
2023-04-14T16:36:08.010Z,15.58
2023-04-14T16:38:35.000Z,15.94
2023-04-14T16:41:03.767Z,16.33
2023-04-14T16:43:32.892Z,16.51
2023-04-14T16:46:04.693Z,16.62
2023-04-14T16:48:32.728Z,16.70
2023-04-14T16:51:11.052Z,16.78
2023-04-14T16:53:39.058Z,16.54
2023-04-14T16:56:07.832Z,16.22
2023-04-14T16:58:37.220Z,16.09
2023-04-14T17:01:06.973Z,16.15
2023-04-14T17:03:34.727Z,16.32
2023-04-14T17:06:02.300Z,16.35
2023-04-14T17:08:30.193Z,16.13
2023-04-14T17:10:57.169Z,16.23
2023-04-14T17:13:24.090Z,16.36
2023-04-14T17:15:58.939Z,16.37
2023-04-14T17:18:34.278Z,16.21
2023-04-14T17:21:01.199Z,15.96
2023-04-14T17:23:28.135Z,15.84
2023-04-14T17:25:56.211Z,15.85
2023-04-14T17:28:23.679Z,15.86
2023-04-14T17:30:51.163Z,15.77
2023-04-14T17:33:20.434Z,15.41
2023-04-14T17:35:48.929Z,14.97
2023-04-14T17:38:16.884Z,14.59
2023-04-14T17:40:43.954Z,14.26
2023-04-14T17:43:10.824Z,14.06
2023-04-14T17:45:40.748Z,13.93
2023-04-14T17:48:08.728Z,13.75
2023-04-14T17:50:35.999Z,13.65
2023-04-14T17:53:02.869Z,13.59
2023-04-14T17:55:30.390Z,13.52
2023-04-14T17:57:58.043Z,13.45
2023-04-14T18:00:24.871Z,13.43
2023-04-14T18:02:52.881Z,13.31
2023-04-14T18:05:20.341Z,13.21
2023-04-14T18:07:49.587Z,13.10
2023-04-14T18:10:17.004Z,13.05
2023-04-14T18:12:44.216Z,13.02
2023-04-14T18:22:41.716Z,12.80
2023-04-14T18:25:09.706Z,12.70
2023-04-14T18:30:07.355Z,12.54
2023-04-14T18:32:34.017Z,12.50
2023-04-14T18:35:00.919Z,12.45
2023-04-14T18:37:27.936Z,12.40
2023-04-14T18:39:55.157Z,12.40
2023-04-14T18:42:21.827Z,12.38
2023-04-14T18:44:48.589Z,12.40
2023-04-14T18:47:15.960Z,12.37
2023-04-14T18:49:42.717Z,12.33
2023-04-14T18:52:09.414Z,12.27
2023-04-14T18:54:36.009Z,12.20
2023-04-14T18:57:03.405Z,12.12
2023-04-14T18:59:30.042Z,12.12
2023-04-14T19:01:58.098Z,12.09
2023-04-14T19:04:24.943Z,12.05
2023-04-14T19:06:51.594Z,11.94
2023-04-14T19:09:18.520Z,11.82
2023-04-14T19:11:46.146Z,11.68
2023-04-14T19:14:12.822Z,11.55
2023-04-14T19:16:39.863Z,11.48
2023-04-14T19:19:06.579Z,11.50
2023-04-14T19:21:33.190Z,11.48
2023-04-14T19:23:59.826Z,11.46
2023-04-14T19:26:26.542Z,11.37
2023-04-14T19:28:54.012Z,11.33
2023-04-14T19:31:21.520Z,11.31
2023-04-14T19:33:48.673Z,11.28
2023-04-14T19:36:17.248Z,11.27
2023-04-14T19:38:44.196Z,11.21
2023-04-14T19:41:11.323Z,11.20
2023-04-14T19:43:38.089Z,11.16
2023-04-14T19:46:05.233Z,11.12
2023-04-14T19:48:35.351Z,11.05
2023-04-14T19:51:02.440Z,10.99
2023-04-14T19:53:29.197Z,10.96
2023-04-14T19:55:58.219Z,10.93
2023-04-14T19:58:26.872Z,10.88
2023-04-14T20:00:57.127Z,10.81
2023-04-14T20:03:24.815Z,10.72
2023-04-14T20:05:56.787Z,10.63
2023-04-14T20:08:25.252Z,10.63
2023-04-14T20:10:54.169Z,10.62
2023-04-14T20:13:23.287Z,10.58
2023-04-14T20:15:50.781Z,10.49
2023-04-14T20:18:18.053Z,10.41
2023-04-14T20:20:47.458Z,10.37
2023-04-14T20:23:14.550Z,10.31
2023-04-14T20:25:42.945Z,10.26
2023-04-14T20:28:09.955Z,10.21
2023-04-14T20:30:37.718Z,10.19
2023-04-14T20:33:04.686Z,10.15
2023-04-14T20:35:35.659Z,10.13
2023-04-14T20:38:02.692Z,10.09
2023-04-14T20:40:30.197Z,10.03
2023-04-14T20:42:57.025Z,9.97
2023-04-14T20:45:24.050Z,9.92
2023-04-14T20:47:50.927Z,9.90
2023-04-14T20:50:18.706Z,9.85
2023-04-14T20:52:45.654Z,9.80
2023-04-14T20:55:13.574Z,9.76
2023-04-14T20:57:43.516Z,9.72
2023-04-14T21:00:12.444Z,9.68
2023-04-14T21:02:39.252Z,9.63
2023-04-14T21:05:06.384Z,9.63
2023-04-14T21:07:35.516Z,9.57
2023-04-14T21:10:04.481Z,9.52
2023-04-14T21:12:35.250Z,9.48
2023-04-14T21:15:47.715Z,9.45
2023-04-14T21:17:50.376Z,9.40
2023-04-14T21:20:17.124Z,9.37
2023-04-14T21:22:43.752Z,9.34
2023-04-14T21:25:10.425Z,9.33
2023-04-14T21:27:37.786Z,9.32
2023-04-14T21:30:04.932Z,9.26
2023-04-14T21:32:31.945Z,9.23
2023-04-14T21:34:59.078Z,9.17
2023-04-14T21:37:25.988Z,9.12
2023-04-14T21:39:53.610Z,9.11
2023-04-14T21:42:20.290Z,9.06
2023-04-14T21:44:49.972Z,9.01
2023-04-14T21:47:17.953Z,8.99
2023-04-14T21:49:46.000Z,8.93
2023-04-14T21:52:12.954Z,8.92
2023-04-14T21:54:43.694Z,8.91
2023-04-14T21:57:11.578Z,8.91
2023-04-14T21:59:38.216Z,8.87
2023-04-14T22:02:04.934Z,8.81
2023-04-14T22:04:36.296Z,8.77
2023-04-14T22:07:03.553Z,8.76
2023-04-14T22:09:30.281Z,8.73
2023-04-14T22:11:57.748Z,8.69
2023-04-14T22:14:24.499Z,8.68
2023-04-14T22:16:51.302Z,8.64
2023-04-14T22:19:19.812Z,8.61
2023-04-14T22:21:47.369Z,8.61
2023-04-14T22:24:14.503Z,8.61
2023-04-14T22:26:42.130Z,8.54
2023-04-14T22:29:09.769Z,8.51
2023-04-14T22:31:38.327Z,8.51
2023-04-14T22:34:05.575Z,8.46
2023-04-14T22:36:32.334Z,8.48
2023-04-14T22:38:59.066Z,8.45
2023-04-14T22:41:26.296Z,8.43
2023-04-14T22:43:52.975Z,8.40
2023-04-14T22:46:19.585Z,8.40
2023-04-14T22:48:46.336Z,8.37
2023-04-14T22:51:13.134Z,8.33
2023-04-14T22:53:39.809Z,8.31
2023-04-14T22:56:07.333Z,8.28
2023-04-14T22:58:39.237Z,8.27
2023-04-14T23:01:15.788Z,8.23
2023-04-14T23:03:50.120Z,8.23
2023-04-14T23:06:17.547Z,8.20
2023-04-14T23:08:44.371Z,8.16
2023-04-14T23:11:11.121Z,8.12
2023-04-14T23:13:37.734Z,8.08
2023-04-14T23:16:04.850Z,8.08
2023-04-14T23:18:32.135Z,8.05
2023-04-14T23:20:58.973Z,8.02
2023-04-14T23:23:25.836Z,8.02
2023-04-14T23:25:52.578Z,7.99
2023-04-14T23:28:19.160Z,7.98
2023-04-14T23:30:45.851Z,7.98
2023-04-14T23:33:12.519Z,7.93
2023-04-14T23:35:39.514Z,7.88
2023-04-14T23:38:06.254Z,7.89
2023-04-14T23:40:34.547Z,7.90
2023-04-14T23:43:01.518Z,7.88
2023-04-14T23:45:28.814Z,7.85
2023-04-14T23:47:55.505Z,7.83
2023-04-14T23:50:22.341Z,7.81
2023-04-14T23:52:49.098Z,7.76
2023-04-14T23:55:16.500Z,7.77
2023-04-14T23:57:44.085Z,7.80
